sensor_id;sensor_type;location;lat;lon;timestamp;pressure;altitude;pressure_sealevel;temperature;humidity
22580;BME280;11456;47.030;15.396;2023-12-22T00:01:25;95526.06;;;8.28;100.00
22580;BME280;11456;47.030;15.396;2023-12-22T00:03:51;95515.19;;;7.93;100.00
22580;BME280;11456;47.030;15.396;2023-12-22T00:06:18;95498.22;;;7.72;100.00
22580;BME280;11456;47.030;15.396;2023-12-22T00:08:45;95497.28;;;7.64;100.00
22580;BME280;11456;47.030;15.396;2023-12-22T00:11:12;95490.66;;;7.60;100.00
22580;BME280;11456;47.030;15.396;2023-12-22T00:13:38;95465.59;;;8.04;100.00
22580;BME280;11456;47.030;15.396;2023-12-22T00:16:05;95446.22;;;7.66;100.00
22580;BME280;11456;47.030;15.396;2023-12-22T00:18:32;95434.34;;;7.24;100.00
22580;BME280;11456;47.030;15.396;2023-12-22T00:20:59;95420.41;;;6.85;100.00
22580;BME280;11456;47.030;15.396;2023-12-22T00:23:26;95419.88;;;6.75;100.00
22580;BME280;11456;47.030;15.396;2023-12-22T00:25:52;95438.31;;;6.70;100.00
22580;BME280;11456;47.030;15.396;2023-12-22T00:28:19;95447.25;;;6.62;100.00
22580;BME280;11456;47.030;15.396;2023-12-22T00:30:46;95448.09;;;6.25;100.00
22580;BME280;11456;47.030;15.396;2023-12-22T00:33:13;95457.28;;;6.00;100.00
22580;BME280;11456;47.030;15.396;2023-12-22T00:35:39;95463.66;;;5.68;100.00
22580;BME280;11456;47.030;15.396;2023-12-22T00:38:06;95424.22;;;5.70;100.00
22580;BME280;11456;47.030;15.396;2023-12-22T00:40:33;95407.75;;;5.67;100.00
22580;BME280;11456;47.030;15.396;2023-12-22T00:43:00;95399.53;;;5.45;100.00
22580;BME280;11456;47.030;15.396;2023-12-22T00:45:26;95424.91;;;5.41;100.00
22580;BME280;11456;47.030;15.396;2023-12-22T00:47:53;95451.03;;;5.23;100.00
22580;BME280;11456;47.030;15.396;2023-12-22T00:50:20;95455.00;;;5.27;100.00
22580;BME280;11456;47.030;15.396;2023-12-22T00:52:46;95499.03;;;5.31;100.00
22580;BME280;11456;47.030;15.396;2023-12-22T00:55:13;95531.56;;;5.65;100.00
22580;BME280;11456;47.030;15.396;2023-12-22T00:57:40;95488.19;;;5.63;100.00
22580;BME280;11456;47.030;15.396;2023-12-22T01:00:07;95505.41;;;5.92;100.00
22580;BME280;11456;47.030;15.396;2023-12-22T01:02:37;95565.72;;;5.78;100.00
22580;BME280;11456;47.030;15.396;2023-12-22T01:05:04;95594.94;;;5.80;100.00
22580;BME280;11456;47.030;15.396;2023-12-22T01:07:31;95588.44;;;5.82;100.00
22580;BME280;11456;47.030;15.396;2023-12-22T01:09:58;95583.28;;;5.73;100.00
22580;BME280;11456;47.030;15.396;2023-12-22T01:12:30;95599.97;;;5.75;100.00
22580;BME280;11456;47.030;15.396;2023-12-22T01:14:57;95620.13;;;5.77;100.00
22580;BME280;11456;47.030;15.396;2023-12-22T01:17:23;95638.69;;;5.71;100.00
22580;BME280;11456;47.030;15.396;2023-12-22T01:19:50;95654.44;;;5.49;100.00
22580;BME280;11456;47.030;15.396;2023-12-22T01:22:17;95665.28;;;5.48;100.00
22580;BME280;11456;47.030;15.396;2023-12-22T01:24:44;95647.84;;;5.76;100.00
22580;BME280;11456;47.030;15.396;2023-12-22T01:27:12;95616.19;;;6.12;100.00
22580;BME280;11456;47.030;15.396;2023-12-22T01:29:39;95619.16;;;6.17;100.00
22580;BME280;11456;47.030;15.396;2023-12-22T01:32:06;95607.44;;;6.26;100.00
22580;BME280;11456;47.030;15.396;2023-12-22T01:34:33;95648.16;;;6.28;100.00
22580;BME280;11456;47.030;15.396;2023-12-22T01:36:59;95647.28;;;6.67;100.00
22580;BME280;11456;47.030;15.396;2023-12-22T01:39:26;95666.78;;;7.21;100.00
22580;BME280;11456;47.030;15.396;2023-12-22T01:41:53;95647.50;;;7.25;100.00
22580;BME280;11456;47.030;15.396;2023-12-22T01:44:19;95658.81;;;7.36;100.00
22580;BME280;11456;47.030;15.396;2023-12-22T01:46:46;95658.63;;;7.52;100.00
22580;BME280;11456;47.030;15.396;2023-12-22T01:49:14;95661.53;;;7.65;100.00
22580;BME280;11456;47.030;15.396;2023-12-22T01:51:42;95638.25;;;7.65;100.00
22580;BME280;11456;47.030;15.396;2023-12-22T01:54:10;95638.69;;;7.69;100.00
22580;BME280;11456;47.030;15.396;2023-12-22T01:56:37;95647.47;;;7.63;100.00
22580;BME280;11456;47.030;15.396;2023-12-22T01:59:04;95658.09;;;7.71;100.00
22580;BME280;11456;47.030;15.396;2023-12-22T02:01:31;95668.63;;;7.87;100.00
22580;BME280;11456;47.030;15.396;2023-12-22T02:03:59;95682.84;;;7.58;100.00
22580;BME280;11456;47.030;15.396;2023-12-22T02:06:26;95669.22;;;7.68;100.00
22580;BME280;11456;47.030;15.396;2023-12-22T02:08:53;95650.25;;;7.55;100.00
22580;BME280;11456;47.030;15.396;2023-12-22T02:11:20;95653.41;;;7.73;100.00
22580;BME280;11456;47.030;15.396;2023-12-22T02:13:47;95639.81;;;8.04;100.00
22580;BME280;11456;47.030;15.396;2023-12-22T02:16:31;95654.44;;;7.87;100.00
22580;BME280;11456;47.030;15.396;2023-12-22T02:19:04;95669.94;;;8.21;100.00
22580;BME280;11456;47.030;15.396;2023-12-22T02:21:34;95692.38;;;7.76;100.00
22580;BME280;11456;47.030;15.396;2023-12-22T02:24:01;95722.56;;;7.55;100.00
22580;BME280;11456;47.030;15.396;2023-12-22T02:26:34;95747.28;;;7.80;100.00
22580;BME280;11456;47.030;15.396;2023-12-22T02:29:05;95767.78;;;7.50;100.00
22580;BME280;11456;47.030;15.396;2023-12-22T02:31:36;95765.06;;;7.35;100.00
22580;BME280;11456;47.030;15.396;2023-12-22T02:34:12;95736.13;;;7.31;100.00
22580;BME280;11456;47.030;15.396;2023-12-22T02:36:40;95731.72;;;7.38;100.00
22580;BME280;11456;47.030;15.396;2023-12-22T02:39:08;95726.03;;;7.41;100.00
22580;BME280;11456;47.030;15.396;2023-12-22T02:41:36;95700.91;;;7.42;100.00
22580;BME280;11456;47.030;15.396;2023-12-22T02:44:03;95680.78;;;7.46;100.00
22580;BME280;11456;47.030;15.396;2023-12-22T02:46:30;95672.53;;;7.33;100.00
22580;BME280;11456;47.030;15.396;2023-12-22T02:48:56;95688.44;;;7.11;100.00
22580;BME280;11456;47.030;15.396;2023-12-22T02:51:23;95695.66;;;6.80;100.00
22580;BME280;11456;47.030;15.396;2023-12-22T02:53:50;95681.53;;;6.94;100.00
22580;BME280;11456;47.030;15.396;2023-12-22T02:56:16;95690.31;;;6.80;100.00
22580;BME280;11456;47.030;15.396;2023-12-22T02:58:43;95727.63;;;6.73;100.00
22580;BME280;11456;47.030;15.396;2023-12-22T03:01:10;95719.31;;;6.68;100.00
22580;BME280;11456;47.030;15.396;2023-12-22T03:03:36;95718.31;;;6.69;100.00
22580;BME280;11456;47.030;15.396;2023-12-22T03:06:03;95710.50;;;6.60;100.00
22580;BME280;11456;47.030;15.396;2023-12-22T03:08:30;95710.88;;;6.57;100.00
22580;BME280;11456;47.030;15.396;2023-12-22T03:10:57;95713.44;;;6.42;100.00
22580;BME280;11456;47.030;15.396;2023-12-22T03:13:24;95714.50;;;6.33;100.00
22580;BME280;11456;47.030;15.396;2023-12-22T03:15:50;95721.69;;;6.24;100.00
22580;BME280;11456;47.030;15.396;2023-12-22T03:18:17;95726.06;;;6.17;100.00
22580;BME280;11456;47.030;15.396;2023-12-22T03:20:44;95746.75;;;6.23;100.00
22580;BME280;11456;47.030;15.396;2023-12-22T03:23:11;95747.66;;;6.08;100.00
22580;BME280;11456;47.030;15.396;2023-12-22T03:25:37;95732.44;;;6.08;100.00
22580;BME280;11456;47.030;15.396;2023-12-22T03:28:04;95749.97;;;6.11;100.00
22580;BME280;11456;47.030;15.396;2023-12-22T03:30:31;95736.13;;;6.07;100.00
22580;BME280;11456;47.030;15.396;2023-12-22T03:32:57;95757.34;;;6.00;100.00
22580;BME280;11456;47.030;15.396;2023-12-22T03:35:24;95748.03;;;5.88;100.00
22580;BME280;11456;47.030;15.396;2023-12-22T03:37:51;95741.19;;;5.61;100.00
22580;BME280;11456;47.030;15.396;2023-12-22T03:40:19;95751.50;;;5.64;100.00
22580;BME280;11456;47.030;15.396;2023-12-22T03:42:45;95754.69;;;6.00;100.00
22580;BME280;11456;47.030;15.396;2023-12-22T03:45:12;95757.84;;;5.72;100.00
22580;BME280;11456;47.030;15.396;2023-12-22T03:47:39;95759.19;;;5.27;100.00
22580;BME280;11456;47.030;15.396;2023-12-22T03:50:06;95754.19;;;5.08;100.00
22580;BME280;11456;47.030;15.396;2023-12-22T03:52:33;95776.22;;;5.18;100.00
22580;BME280;11456;47.030;15.396;2023-12-22T03:55:00;95785.88;;;5.11;100.00
22580;BME280;11456;47.030;15.396;2023-12-22T03:57:26;95783.00;;;4.96;100.00
22580;BME280;11456;47.030;15.396;2023-12-22T03:59:53;95801.53;;;4.98;100.00
22580;BME280;11456;47.030;15.396;2023-12-22T04:02:20;95791.72;;;4.56;100.00
22580;BME280;11456;47.030;15.396;2023-12-22T04:04:46;95804.72;;;4.59;100.00
22580;BME280;11456;47.030;15.396;2023-12-22T04:07:13;95805.34;;;4.45;100.00
22580;BME280;11456;47.030;15.396;2023-12-22T04:09:40;95822.34;;;4.94;100.00
22580;BME280;11456;47.030;15.396;2023-12-22T04:12:06;95822.63;;;5.49;100.00
22580;BME280;11456;47.030;15.396;2023-12-22T04:14:33;95832.28;;;5.58;100.00
22580;BME280;11456;47.030;15.396;2023-12-22T04:17:00;95822.97;;;5.95;100.00
22580;BME280;11456;47.030;15.396;2023-12-22T04:19:27;95845.31;;;5.86;100.00
22580;BME280;11456;47.030;15.396;2023-12-22T04:21:54;95844.69;;;5.92;100.00
22580;BME280;11456;47.030;15.396;2023-12-22T04:24:20;95838.19;;;5.94;100.00
22580;BME280;11456;47.030;15.396;2023-12-22T04:26:47;95841.31;;;5.90;100.00
22580;BME280;11456;47.030;15.396;2023-12-22T04:29:14;95865.84;;;5.85;100.00
22580;BME280;11456;47.030;15.396;2023-12-22T04:31:40;95857.47;;;5.64;100.00
22580;BME280;11456;47.030;15.396;2023-12-22T04:34:07;95863.00;;;5.79;100.00
22580;BME280;11456;47.030;15.396;2023-12-22T04:36:35;95842.16;;;5.90;100.00
22580;BME280;11456;47.030;15.396;2023-12-22T04:39:02;95846.31;;;5.60;100.00
22580;BME280;11456;47.030;15.396;2023-12-22T04:41:29;95876.41;;;6.03;99.13
22580;BME280;11456;47.030;15.396;2023-12-22T04:43:55;95864.66;;;6.36;96.25
22580;BME280;11456;47.030;15.396;2023-12-22T04:46:22;95847.47;;;6.31;96.31
22580;BME280;11456;47.030;15.396;2023-12-22T04:48:49;95822.78;;;6.13;91.75
22580;BME280;11456;47.030;15.396;2023-12-22T04:51:15;95808.22;;;6.31;91.49
22580;BME280;11456;47.030;15.396;2023-12-22T04:53:42;95818.75;;;6.25;92.83
22580;BME280;11456;47.030;15.396;2023-12-22T04:56:09;95840.31;;;6.15;93.96
22580;BME280;11456;47.030;15.396;2023-12-22T04:58:35;95836.66;;;6.00;94.89
22580;BME280;11456;47.030;15.396;2023-12-22T05:01:02;95814.94;;;5.87;94.49
22580;BME280;11456;47.030;15.396;2023-12-22T05:03:29;95815.94;;;5.78;95.76
22580;BME280;11456;47.030;15.396;2023-12-22T05:05:55;95816.94;;;5.85;98.30
22580;BME280;11456;47.030;15.396;2023-12-22T05:08:22;95809.25;;;5.57;98.92
22580;BME280;11456;47.030;15.396;2023-12-22T05:10:49;95811.91;;;5.33;100.00
22580;BME280;11456;47.030;15.396;2023-12-22T05:13:15;95824.25;;;5.34;100.00
22580;BME280;11456;47.030;15.396;2023-12-22T05:15:42;95828.41;;;5.20;100.00
22580;BME280;11456;47.030;15.396;2023-12-22T05:18:09;95836.84;;;5.00;100.00
22580;BME280;11456;47.030;15.396;2023-12-22T05:20:36;95831.47;;;4.83;100.00
22580;BME280;11456;47.030;15.396;2023-12-22T05:23:02;95808.09;;;4.69;100.00
22580;BME280;11456;47.030;15.396;2023-12-22T05:25:29;95812.13;;;4.81;100.00
22580;BME280;11456;47.030;15.396;2023-12-22T05:27:56;95792.84;;;4.96;100.00
22580;BME280;11456;47.030;15.396;2023-12-22T05:30:23;95806.16;;;4.88;100.00
22580;BME280;11456;47.030;15.396;2023-12-22T05:32:50;95808.00;;;4.95;100.00
22580;BME280;11456;47.030;15.396;2023-12-22T05:35:17;95821.69;;;5.00;100.00
22580;BME280;11456;47.030;15.396;2023-12-22T05:37:43;95824.03;;;5.03;100.00
22580;BME280;11456;47.030;15.396;2023-12-22T05:40:10;95827.50;;;4.96;100.00
22580;BME280;11456;47.030;15.396;2023-12-22T05:42:38;95842.84;;;4.94;100.00
22580;BME280;11456;47.030;15.396;2023-12-22T05:45:05;95837.25;;;5.21;100.00
22580;BME280;11456;47.030;15.396;2023-12-22T05:47:33;95828.88;;;5.08;100.00
22580;BME280;11456;47.030;15.396;2023-12-22T05:49:59;95818.91;;;5.18;100.00
22580;BME280;11456;47.030;15.396;2023-12-22T05:52:26;95830.44;;;5.18;100.00
22580;BME280;11456;47.030;15.396;2023-12-22T05:54:53;95840.28;;;5.34;100.00
22580;BME280;11456;47.030;15.396;2023-12-22T05:57:20;95847.78;;;5.39;100.00
22580;BME280;11456;47.030;15.396;2023-12-22T05:59:47;95857.31;;;5.49;100.00
22580;BME280;11456;47.030;15.396;2023-12-22T06:02:14;95857.31;;;5.57;100.00
22580;BME280;11456;47.030;15.396;2023-12-22T06:04:40;95833.28;;;5.65;99.16
22580;BME280;11456;47.030;15.396;2023-12-22T06:07:07;95843.13;;;5.65;100.00
22580;BME280;11456;47.030;15.396;2023-12-22T06:09:34;95856.66;;;5.63;100.00
22580;BME280;11456;47.030;15.396;2023-12-22T06:12:00;95867.69;;;5.69;100.00
22580;BME280;11456;47.030;15.396;2023-12-22T06:14:27;95855.03;;;5.95;100.00
22580;BME280;11456;47.030;15.396;2023-12-22T06:16:54;95852.16;;;5.80;100.00
22580;BME280;11456;47.030;15.396;2023-12-22T06:19:23;95864.00;;;5.78;100.00
22580;BME280;11456;47.030;15.396;2023-12-22T06:21:51;95870.34;;;5.85;100.00
22580;BME280;11456;47.030;15.396;2023-12-22T06:24:18;95882.38;;;5.73;100.00
22580;BME280;11456;47.030;15.396;2023-12-22T06:26:45;95861.66;;;5.67;100.00
22580;BME280;11456;47.030;15.396;2023-12-22T06:29:12;95860.69;;;5.68;100.00
22580;BME280;11456;47.030;15.396;2023-12-22T06:31:38;95867.19;;;5.73;100.00
22580;BME280;11456;47.030;15.396;2023-12-22T06:34:05;95872.06;;;6.10;100.00
22580;BME280;11456;47.030;15.396;2023-12-22T06:36:32;95865.38;;;5.98;100.00
22580;BME280;11456;47.030;15.396;2023-12-22T06:38:58;95878.72;;;5.82;100.00
22580;BME280;11456;47.030;15.396;2023-12-22T06:41:29;95876.38;;;5.87;100.00
22580;BME280;11456;47.030;15.396;2023-12-22T06:43:57;95870.03;;;5.96;100.00
22580;BME280;11456;47.030;15.396;2023-12-22T06:46:28;95883.41;;;5.96;100.00
22580;BME280;11456;47.030;15.396;2023-12-22T06:48:56;95884.38;;;5.87;100.00
22580;BME280;11456;47.030;15.396;2023-12-22T06:51:25;95893.59;;;5.92;100.00
22580;BME280;11456;47.030;15.396;2023-12-22T06:53:53;95906.31;;;6.07;100.00
22580;BME280;11456;47.030;15.396;2023-12-22T06:56:25;95912.78;;;5.96;100.00
22580;BME280;11456;47.030;15.396;2023-12-22T06:58:53;95905.72;;;5.54;100.00
22580;BME280;11456;47.030;15.396;2023-12-22T07:01:25;95923.84;;;6.01;100.00
22580;BME280;11456;47.030;15.396;2023-12-22T07:03:52;95930.59;;;6.76;100.00
22580;BME280;11456;47.030;15.396;2023-12-22T07:06:20;95920.09;;;6.67;100.00
22580;BME280;11456;47.030;15.396;2023-12-22T07:11:49;95956.38;;;6.53;100.00
22580;BME280;11456;47.030;15.396;2023-12-22T07:14:17;95974.94;;;6.06;100.00
22580;BME280;11456;47.030;15.396;2023-12-22T07:16:44;95971.59;;;6.12;100.00
22580;BME280;11456;47.030;15.396;2023-12-22T07:19:11;95952.16;;;5.70;100.00
22580;BME280;11456;47.030;15.396;2023-12-22T07:21:40;95933.16;;;5.97;100.00
22580;BME280;11456;47.030;15.396;2023-12-22T07:24:09;95931.84;;;5.93;100.00
22580;BME280;11456;47.030;15.396;2023-12-22T07:26:36;95937.28;;;5.67;100.00
22580;BME280;11456;47.030;15.396;2023-12-22T07:29:03;95928.50;;;5.91;100.00
22580;BME280;11456;47.030;15.396;2023-12-22T07:31:30;95923.91;;;5.59;100.00
22580;BME280;11456;47.030;15.396;2023-12-22T07:33:56;95942.53;;;5.93;100.00
22580;BME280;11456;47.030;15.396;2023-12-22T07:36:23;95927.44;;;5.84;100.00
22580;BME280;11456;47.030;15.396;2023-12-22T07:38:50;95937.78;;;5.71;100.00
22580;BME280;11456;47.030;15.396;2023-12-22T07:41:16;95934.19;;;5.88;100.00
22580;BME280;11456;47.030;15.396;2023-12-22T07:43:45;95925.81;;;5.91;100.00
22580;BME280;11456;47.030;15.396;2023-12-22T07:46:19;95926.16;;;5.96;100.00
22580;BME280;11456;47.030;15.396;2023-12-22T07:48:46;95939.06;;;5.42;100.00
22580;BME280;11456;47.030;15.396;2023-12-22T07:51:14;95930.34;;;5.32;100.00
22580;BME280;11456;47.030;15.396;2023-12-22T07:53:41;95920.06;;;5.53;100.00
22580;BME280;11456;47.030;15.396;2023-12-22T07:56:08;95925.75;;;5.67;100.00
22580;BME280;11456;47.030;15.396;2023-12-22T07:58:38;95933.06;;;5.48;100.00
22580;BME280;11456;47.030;15.396;2023-12-22T08:01:05;95933.34;;;5.87;100.00
22580;BME280;11456;47.030;15.396;2023-12-22T08:03:34;95939.97;;;5.75;100.00
22580;BME280;11456;47.030;15.396;2023-12-22T08:06:01;95942.22;;;5.46;100.00
22580;BME280;11456;47.030;15.396;2023-12-22T08:08:28;95956.69;;;5.27;100.00
22580;BME280;11456;47.030;15.396;2023-12-22T08:10:55;95963.44;;;5.47;100.00
22580;BME280;11456;47.030;15.396;2023-12-22T08:13:22;95975.16;;;5.71;100.00
22580;BME280;11456;47.030;15.396;2023-12-22T08:15:49;95975.16;;;5.71;100.00
22580;BME280;11456;47.030;15.396;2023-12-22T08:18:16;95967.44;;;5.43;100.00
22580;BME280;11456;47.030;15.396;2023-12-22T08:20:42;95964.63;;;5.61;100.00
22580;BME280;11456;47.030;15.396;2023-12-22T08:23:13;95953.59;;;5.06;100.00
22580;BME280;11456;47.030;15.396;2023-12-22T08:25:40;95965.69;;;5.26;100.00
22580;BME280;11456;47.030;15.396;2023-12-22T08:28:11;95981.38;;;5.29;100.00
22580;BME280;11456;47.030;15.396;2023-12-22T08:30:39;95997.63;;;5.10;100.00
22580;BME280;11456;47.030;15.396;2023-12-22T08:33:06;96007.38;;;5.27;100.00
22580;BME280;11456;47.030;15.396;2023-12-22T08:35:33;95982.19;;;5.72;100.00
22580;BME280;11456;47.030;15.396;2023-12-22T08:37:59;95967.44;;;5.43;100.00
22580;BME280;11456;47.030;15.396;2023-12-22T08:40:26;95964.97;;;5.16;100.00
22580;BME280;11456;47.030;15.396;2023-12-22T08:42:54;95978.75;;;5.37;100.00
22580;BME280;11456;47.030;15.396;2023-12-22T08:45:21;95971.66;;;5.62;100.00
22580;BME280;11456;47.030;15.396;2023-12-22T08:47:48;95976.94;;;6.12;100.00
22580;BME280;11456;47.030;15.396;2023-12-22T08:50:15;95979.53;;;5.80;100.00
22580;BME280;11456;47.030;15.396;2023-12-22T08:52:42;95987.09;;;5.42;100.00
22580;BME280;11456;47.030;15.396;2023-12-22T08:55:08;95989.09;;;5.40;100.00
22580;BME280;11456;47.030;15.396;2023-12-22T08:57:35;95975.41;;;5.35;100.00
22580;BME280;11456;47.030;15.396;2023-12-22T09:00:02;95962.09;;;5.43;100.00
22580;BME280;11456;47.030;15.396;2023-12-22T09:02:30;95963.97;;;5.59;100.00
22580;BME280;11456;47.030;15.396;2023-12-22T09:04:56;95965.03;;;5.32;100.00
22580;BME280;11456;47.030;15.396;2023-12-22T09:07:23;95946.03;;;5.35;100.00
22580;BME280;11456;47.030;15.396;2023-12-22T09:09:51;95949.78;;;5.58;100.00
22580;BME280;11456;47.030;15.396;2023-12-22T09:12:18;95951.16;;;5.79;100.00
22580;BME280;11456;47.030;15.396;2023-12-22T09:14:45;95947.13;;;5.83;100.00
22580;BME280;11456;47.030;15.396;2023-12-22T09:17:12;95964.50;;;5.79;100.00
22580;BME280;11456;47.030;15.396;2023-12-22T09:19:38;95975.00;;;5.72;100.00
22580;BME280;11456;47.030;15.396;2023-12-22T09:22:05;95975.94;;;6.05;100.00
22580;BME280;11456;47.030;15.396;2023-12-22T09:24:32;95985.28;;;6.01;100.00
22580;BME280;11456;47.030;15.396;2023-12-22T09:26:59;95999.91;;;5.81;100.00
22580;BME280;11456;47.030;15.396;2023-12-22T09:29:30;95996.97;;;6.00;100.00
22580;BME280;11456;47.030;15.396;2023-12-22T09:31:58;95989.97;;;6.07;100.00
22580;BME280;11456;47.030;15.396;2023-12-22T09:34:28;95964.22;;;5.90;100.00
22580;BME280;11456;47.030;15.396;2023-12-22T09:36:55;95983.16;;;5.71;100.00
22580;BME280;11456;47.030;15.396;2023-12-22T09:39:22;95992.03;;;5.71;100.00
22580;BME280;11456;47.030;15.396;2023-12-22T09:41:49;95987.47;;;5.47;100.00
22580;BME280;11456;47.030;15.396;2023-12-22T09:44:19;95997.81;;;5.50;100.00
22580;BME280;11456;47.030;15.396;2023-12-22T09:46:50;96004.81;;;5.51;100.00
22580;BME280;11456;47.030;15.396;2023-12-22T09:49:19;96021.84;;;5.50;100.00
22580;BME280;11456;47.030;15.396;2023-12-22T09:51:47;96022.66;;;5.51;100.00
22580;BME280;11456;47.030;15.396;2023-12-22T09:54:16;96005.91;;;5.75;100.00
22580;BME280;11456;47.030;15.396;2023-12-22T09:56:44;95993.84;;;5.62;100.00
22580;BME280;11456;47.030;15.396;2023-12-22T09:59:13;95998.84;;;5.65;100.00
22580;BME280;11456;47.030;15.396;2023-12-22T10:01:43;95998.84;;;5.65;100.00
22580;BME280;11456;47.030;15.396;2023-12-22T10:04:13;96002.53;;;5.64;100.00
22580;BME280;11456;47.030;15.396;2023-12-22T10:06:44;96010.91;;;5.70;100.00
22580;BME280;11456;47.030;15.396;2023-12-22T10:09:15;96029.59;;;5.78;100.00
22580;BME280;11456;47.030;15.396;2023-12-22T10:11:43;96028.13;;;5.83;100.00
22580;BME280;11456;47.030;15.396;2023-12-22T10:14:11;96025.00;;;5.88;100.00
22580;BME280;11456;47.030;15.396;2023-12-22T10:16:38;96014.59;;;5.85;100.00
22580;BME280;11456;47.030;15.396;2023-12-22T10:19:06;96043.59;;;5.72;100.00
22580;BME280;11456;47.030;15.396;2023-12-22T10:21:33;96048.44;;;5.76;100.00
22580;BME280;11456;47.030;15.396;2023-12-22T10:24:01;96075.13;;;5.94;100.00
22580;BME280;11456;47.030;15.396;2023-12-22T10:26:28;96080.47;;;6.02;100.00
22580;BME280;11456;47.030;15.396;2023-12-22T10:28:55;96075.88;;;6.44;100.00
22580;BME280;11456;47.030;15.396;2023-12-22T10:31:22;96054.31;;;6.38;100.00
22580;BME280;11456;47.030;15.396;2023-12-22T10:33:49;96053.13;;;6.24;100.00
22580;BME280;11456;47.030;15.396;2023-12-22T10:36:16;96012.34;;;7.03;100.00
22580;BME280;11456;47.030;15.396;2023-12-22T10:38:43;96024.06;;;6.62;100.00
22580;BME280;11456;47.030;15.396;2023-12-22T10:41:11;96033.25;;;6.67;100.00
22580;BME280;11456;47.030;15.396;2023-12-22T10:43:38;96019.06;;;6.42;100.00
22580;BME280;11456;47.030;15.396;2023-12-22T10:46:07;96013.72;;;6.51;100.00
22580;BME280;11456;47.030;15.396;2023-12-22T10:48:39;95979.63;;;6.44;100.00
22580;BME280;11456;47.030;15.396;2023-12-22T10:51:10;95962.94;;;6.26;100.00
22580;BME280;11456;47.030;15.396;2023-12-22T10:53:40;95977.63;;;6.06;100.00
22580;BME280;11456;47.030;15.396;2023-12-22T10:56:07;95990.66;;;6.33;100.00
22580;BME280;11456;47.030;15.396;2023-12-22T10:58:34;95980.59;;;6.76;100.00
22580;BME280;11456;47.030;15.396;2023-12-22T11:01:02;95974.09;;;6.70;100.00
22580;BME280;11456;47.030;15.396;2023-12-22T11:03:32;95960.91;;;6.53;100.00
22580;BME280;11456;47.030;15.396;2023-12-22T11:06:04;95951.84;;;6.70;100.00
22580;BME280;11456;47.030;15.396;2023-12-22T11:08:35;95967.53;;;6.89;100.00
22580;BME280;11456;47.030;15.396;2023-12-22T11:11:11;95964.19;;;6.79;100.00
22580;BME280;11456;47.030;15.396;2023-12-22T11:13:40;95935.59;;;6.79;100.00
22580;BME280;11456;47.030;15.396;2023-12-22T11:16:09;95941.38;;;6.52;100.00
22580;BME280;11456;47.030;15.396;2023-12-22T11:18:36;95924.13;;;6.55;100.00
22580;BME280;11456;47.030;15.396;2023-12-22T11:21:06;95921.06;;;6.74;100.00
22580;BME280;11456;47.030;15.396;2023-12-22T11:23:33;95925.50;;;6.18;100.00
22580;BME280;11456;47.030;15.396;2023-12-22T11:26:02;95927.69;;;6.07;100.00
22580;BME280;11456;47.030;15.396;2023-12-22T11:28:32;95931.69;;;6.19;100.00
22580;BME280;11456;47.030;15.396;2023-12-22T11:31:01;95936.16;;;6.02;100.00
22580;BME280;11456;47.030;15.396;2023-12-22T11:33:28;95944.53;;;5.91;100.00
22580;BME280;11456;47.030;15.396;2023-12-22T11:35:56;95959.56;;;6.00;100.00
22580;BME280;11456;47.030;15.396;2023-12-22T11:38:24;95976.38;;;5.84;100.00
22580;BME280;11456;47.030;15.396;2023-12-22T11:40:52;95965.56;;;5.94;100.00
22580;BME280;11456;47.030;15.396;2023-12-22T11:43:20;95983.59;;;5.92;100.00
22580;BME280;11456;47.030;15.396;2023-12-22T11:45:50;96003.28;;;5.91;100.00
22580;BME280;11456;47.030;15.396;2023-12-22T11:48:17;95978.59;;;6.21;100.00
22580;BME280;11456;47.030;15.396;2023-12-22T11:50:44;95975.59;;;6.16;100.00
22580;BME280;11456;47.030;15.396;2023-12-22T11:53:22;95970.44;;;6.23;100.00
22580;BME280;11456;47.030;15.396;2023-12-22T11:58:35;95957.22;;;6.21;100.00
22580;BME280;11456;47.030;15.396;2023-12-22T12:01:04;95946.88;;;6.10;100.00
22580;BME280;11456;47.030;15.396;2023-12-22T12:03:32;95904.25;;;5.84;100.00
22580;BME280;11456;47.030;15.396;2023-12-22T12:06:14;95907.25;;;5.81;100.00
22580;BME280;11456;47.030;15.396;2023-12-22T12:08:43;95922.25;;;5.66;100.00
22580;BME280;11456;47.030;15.396;2023-12-22T12:11:10;95923.78;;;5.69;100.00
22580;BME280;11456;47.030;15.396;2023-12-22T12:13:41;95899.41;;;5.80;100.00
22580;BME280;11456;47.030;15.396;2023-12-22T12:16:13;95884.72;;;5.84;100.00
22580;BME280;11456;47.030;15.396;2023-12-22T12:18:41;95899.41;;;5.80;100.00
22580;BME280;11456;47.030;15.396;2023-12-22T12:21:08;95903.06;;;5.71;100.00
22580;BME280;11456;47.030;15.396;2023-12-22T12:23:36;95912.91;;;5.78;100.00
22580;BME280;11456;47.030;15.396;2023-12-22T12:26:06;95919.75;;;5.64;100.00
22580;BME280;11456;47.030;15.396;2023-12-22T12:28:35;95883.84;;;5.51;100.00
22580;BME280;11456;47.030;15.396;2023-12-22T12:31:04;95905.06;;;5.77;100.00
22580;BME280;11456;47.030;15.396;2023-12-22T12:33:32;95908.75;;;5.76;100.00
22580;BME280;11456;47.030;15.396;2023-12-22T12:36:00;95909.25;;;5.79;100.00
22580;BME280;11456;47.030;15.396;2023-12-22T12:38:45;95914.75;;;5.70;100.00
22580;BME280;11456;47.030;15.396;2023-12-22T12:41:15;95917.09;;;5.81;100.00
22580;BME280;11456;47.030;15.396;2023-12-22T12:43:43;95912.09;;;5.78;100.00
22580;BME280;11456;47.030;15.396;2023-12-22T12:46:10;95886.06;;;5.96;100.00
22580;BME280;11456;47.030;15.396;2023-12-22T12:48:37;95890.06;;;5.84;100.00
22580;BME280;11456;47.030;15.396;2023-12-22T12:51:05;95893.25;;;5.95;100.00
22580;BME280;11456;47.030;15.396;2023-12-22T12:53:33;95909.13;;;6.05;100.00
22580;BME280;11456;47.030;15.396;2023-12-22T12:56:00;95908.47;;;6.03;100.00
22580;BME280;11456;47.030;15.396;2023-12-22T12:58:32;95912.81;;;6.04;100.00